Time;durP1;ratioP1;P1;durP2;ratioP2;P2;SDS_P1;SDS_P2;PMS_P1;PMS_P2;Temp;Humidity;BMP_temperature;BMP_pressure;BME280_temperature;BME280_humidity;BME280_pressure;Samples;Min_cycle;Max_cycle;Signal;HPM_P1;HPM_P2
2023/11/15 00:01:04;;;;;;;9.80;1.98;;;;;;;7.88;100.00;100283.50;5007254;28;20492;-45
2023/11/15 00:03:38;;;;;;;13.27;2.63;;;;;;;7.88;100.00;100278.78;5004365;28;20058;-45
2023/11/15 00:06:05;;;;;;;16.13;2.90;;;;;;;7.86;100.00;100292.09;5007409;28;20361;-46
2023/11/15 00:08:32;;;;;;;10.30;2.67;;;;;;;7.86;100.00;100292.09;5005573;28;20053;-46
2023/11/15 00:10:59;;;;;;;7.90;2.10;;;;;;;7.85;100.00;100290.50;5008262;28;20046;-45
2023/11/15 00:13:27;;;;;;;15.70;3.42;;;;;;;7.83;100.00;100298.31;5004760;28;20034;-44
2023/11/15 00:15:54;;;;;;;12.45;2.85;;;;;;;7.83;100.00;100301.06;5008084;28;20038;-44
2023/11/15 00:18:21;;;;;;;13.75;2.47;;;;;;;7.82;100.00;100298.63;4990446;28;20261;-45
2023/11/15 00:20:48;;;;;;;8.63;2.00;;;;;;;7.80;100.00;100298.16;4995831;28;20049;-46
2023/11/15 00:23:15;;;;;;;15.13;3.28;;;;;;;7.79;100.00;100302.03;5007743;28;20081;-44
2023/11/15 00:25:42;;;;;;;12.73;2.47;;;;;;;7.78;100.00;100306.75;5008005;28;20800;-44
2023/11/15 00:28:09;;;;;;;12.75;3.90;;;;;;;7.77;100.00;100298.81;5007202;28;20049;-48
2023/11/15 00:30:35;;;;;;;12.27;2.47;;;;;;;7.75;100.00;100307.44;5007882;28;20038;-44
2023/11/15 00:33:02;;;;;;;13.60;2.35;;;;;;;7.74;100.00;100305.00;5007802;28;20147;-44
2023/11/15 00:35:29;;;;;;;20.80;2.35;;;;;;;7.73;100.00;100304.19;5006848;28;20042;-44
2023/11/15 00:37:57;;;;;;;16.33;4.10;;;;;;;7.73;100.00;100314.44;5007903;28;20069;-44
2023/11/15 00:40:23;;;;;;;18.92;2.13;;;;;;;7.71;100.00;100312.00;5007791;28;20885;-45
2023/11/15 00:42:50;;;;;;;14.30;2.95;;;;;;;7.69;100.00;100319.81;5007945;28;20054;-44
2023/11/15 00:45:18;;;;;;;13.57;2.28;;;;;;;7.69;100.00;100330.00;5007586;28;20046;-47
2023/11/15 00:47:45;;;;;;;11.38;2.25;;;;;;;7.68;100.00;100322.88;5007135;28;20069;-44
2023/11/15 00:50:12;;;;;;;17.63;3.28;;;;;;;7.68;100.00;100329.19;5006569;28;20050;-45
2023/11/15 00:52:39;;;;;;;15.57;3.85;;;;;;;7.66;100.00;100337.00;5007689;28;20046;-44
2023/11/15 00:55:07;;;;;;;14.70;2.92;;;;;;;7.66;100.00;100333.44;5002457;28;20069;-47
2023/11/15 00:57:34;;;;;;;13.90;2.88;;;;;;;7.65;100.00;100326.31;5004815;28;20042;-46
2023/11/15 01:00:01;;;;;;;13.50;3.08;;;;;;;7.62;100.00;100333.31;5007692;28;20123;-46
2023/11/15 01:02:32;;;;;;;14.80;2.67;;;;;;;7.62;100.00;100333.31;5006718;28;20858;-47
2023/11/15 01:05:00;;;;;;;14.35;4.00;;;;;;;7.59;100.00;100339.50;5007527;28;20041;-44
2023/11/15 01:07:27;;;;;;;18.98;2.70;;;;;;;7.59;100.00;100342.25;5009436;28;20152;-44
2023/11/15 01:09:55;;;;;;;23.75;2.70;;;;;;;7.56;100.00;100336.59;5011473;28;20084;-44
2023/11/15 01:12:22;;;;;;;21.23;3.45;;;;;;;7.56;100.00;100342.91;5010962;28;20141;-46
2023/11/15 01:14:49;;;;;;;14.43;2.83;;;;;;;7.55;100.00;100352.31;5010422;28;20037;-45
2023/11/15 01:17:16;;;;;;;10.77;3.00;;;;;;;7.55;100.00;100360.56;5010603;28;20053;-45
2023/11/15 01:19:43;;;;;;;16.92;4.65;;;;;;;7.54;100.00;100361.72;5003863;28;20220;-44
2023/11/15 01:22:09;;;;;;;17.77;4.20;;;;;;;7.53;100.00;100371.13;5007784;28;20076;-46
2023/11/15 01:24:39;;;;;;;13.50;3.28;;;;;;;7.51;100.00;100365.16;5011232;28;20069;-45
2023/11/15 01:27:06;;;;;;;16.38;2.53;;;;;;;7.50;100.00;100368.22;5010559;28;20506;-46
2023/11/15 01:29:33;;;;;;;17.05;3.22;;;;;;;7.49;100.00;100361.94;5011119;28;20048;-47
2023/11/15 01:32:00;;;;;;;12.93;3.10;;;;;;;7.49;100.00;100375.69;5010686;28;20771;-45
2023/11/15 01:34:27;;;;;;;13.52;3.03;;;;;;;7.48;100.00;100368.56;5010680;28;20066;-45
2023/11/15 01:36:54;;;;;;;14.02;3.33;;;;;;;7.47;100.00;100377.97;5010717;28;20129;-44
2023/11/15 01:39:23;;;;;;;13.45;3.15;;;;;;;7.46;100.00;100379.13;5010654;28;20050;-44
2023/11/15 01:41:50;;;;;;;19.63;4.00;;;;;;;7.43;100.00;100371.53;5009148;28;20045;-44
2023/11/15 01:44:19;;;;;;;13.32;3.97;;;;;;;7.42;100.00;100375.41;5010567;28;20033;-46
2023/11/15 01:46:50;;;;;;;19.33;3.92;;;;;;;7.40;100.00;100385.94;5010598;28;20054;-45
2023/11/15 01:49:17;;;;;;;9.75;2.70;;;;;;;7.38;100.00;100379.97;5010380;28;20042;-44
2023/11/15 01:51:45;;;;;;;15.07;3.55;;;;;;;7.35;100.00;100384.19;5011014;28;20052;-45
2023/11/15 01:54:14;;;;;;;17.67;3.45;;;;;;;7.33;100.00;100374.66;5009625;28;20041;-45
2023/11/15 01:56:41;;;;;;;12.55;3.28;;;;;;;7.32;100.00;100386.81;5010487;28;20389;-45
2023/11/15 01:59:09;;;;;;;12.38;2.97;;;;;;;7.31;100.00;100385.19;5009889;28;20103;-47
2023/11/15 02:01:36;;;;;;;13.60;3.28;;;;;;;7.29;100.00;100385.53;5010691;28;20140;-45
2023/11/15 02:04:04;;;;;;;17.15;2.90;;;;;;;7.28;100.00;100385.88;5009970;28;20045;-45
2023/11/15 02:06:32;;;;;;;17.58;2.97;;;;;;;7.26;100.00;100388.13;5010249;28;20514;-45
2023/11/15 02:08:59;;;;;;;21.42;3.65;;;;;;;7.25;100.00;100386.53;5009496;28;20077;-46
2023/11/15 02:11:27;;;;;;;21.83;2.97;;;;;;;7.21;100.00;100383.63;5009744;28;20523;-46
2023/11/15 02:13:58;;;;;;;12.05;2.67;;;;;;;7.19;100.00;100388.66;5009844;28;20408;-45
2023/11/15 02:16:26;;;;;;;24.08;3.88;;;;;;;7.18;100.00;100383.47;5008965;28;20100;-46
2023/11/15 02:18:53;;;;;;;19.13;3.40;;;;;;;7.17;100.00;100384.63;5008248;28;20046;-46
2023/11/15 02:21:20;;;;;;;16.13;3.05;;;;;;;7.16;100.00;100396.75;4999503;28;20037;-44
2023/11/15 02:23:48;;;;;;;17.77;3.95;;;;;;;7.15;100.00;100389.63;5009157;28;20073;-46
2023/11/15 02:26:14;;;;;;;19.98;2.88;;;;;;;7.13;100.00;100394.66;5009180;28;20056;-44
2023/11/15 02:28:41;;;;;;;13.20;3.60;;;;;;;7.12;100.00;100387.56;5008641;28;20029;-45
2023/11/15 02:31:10;;;;;;;11.73;2.38;;;;;;;7.10;100.00;100396.13;5007846;28;20069;-45
2023/11/15 02:33:38;;;;;;;22.45;4.00;;;;;;;7.10;100.00;100409.09;5009035;28;20463;-45
2023/11/15 02:36:05;;;;;;;20.23;2.83;;;;;;;7.07;100.00;100404.25;5008769;28;20041;-44
2023/11/15 02:38:32;;;;;;;16.77;3.40;;;;;;;7.05;100.00;100410.09;5009403;28;20045;-44
2023/11/15 02:40:59;;;;;;;14.93;3.60;;;;;;;7.05;100.00;100420.28;5008333;28;20041;-44
2023/11/15 02:43:25;;;;;;;14.77;4.55;;;;;;;7.05;100.00;100417.53;5007595;28;20033;-45
2023/11/15 02:45:52;;;;;;;18.75;3.03;;;;;;;7.04;100.00;100430.47;5008913;28;20460;-44
2023/11/15 02:48:19;;;;;;;16.63;2.25;;;;;;;7.04;100.00;100429.69;5009138;28;20041;-44
2023/11/15 02:50:46;;;;;;;19.38;2.72;;;;;;;7.03;100.00;100425.31;5009298;28;20048;-46
2023/11/15 02:53:12;;;;;;;12.95;2.38;;;;;;;7.03;100.00;100428.06;5007808;28;20065;-43
2023/11/15 02:55:39;;;;;;;10.95;2.40;;;;;;;7.05;100.00;100423.03;5008894;28;20096;-46
2023/11/15 02:58:06;;;;;;;21.05;3.95;;;;;;;7.04;100.00;100435.19;5008933;28;20124;-49
2023/11/15 03:03:02;;;;;;;19.63;2.97;;;;;;;7.04;100.00;100432.44;4929793;29;20048;-47
2023/11/15 03:05:29;;;;;;;7.57;1.98;;;;;;;7.05;100.00;100436.78;4931293;29;20126;-44
2023/11/15 03:07:57;;;;;;;18.20;2.88;;;;;;;7.09;100.00;100437.75;4930723;29;20387;-44
2023/11/15 03:10:24;;;;;;;16.40;2.70;;;;;;;7.11;100.00;100441.00;4931223;29;20162;-44
2023/11/15 03:12:50;;;;;;;18.02;3.80;;;;;;;7.11;100.00;100443.75;4930457;29;20071;-44
2023/11/15 03:15:18;;;;;;;13.18;2.33;;;;;;;7.12;100.00;100448.13;4913474;29;20028;-46
2023/11/15 03:17:45;;;;;;;12.43;2.75;;;;;;;7.12;100.00;100442.63;4931057;29;20039;-44
2023/11/15 03:20:11;;;;;;;17.27;3.88;;;;;;;7.12;100.00;100446.16;4930500;29;20099;-44
2023/11/15 03:22:38;;;;;;;20.30;2.42;;;;;;;7.13;100.00;100444.22;4931030;29;20055;-45
2023/11/15 03:25:05;;;;;;;16.80;2.70;;;;;;;7.13;100.00;100449.72;4930654;29;20502;-46
2023/11/15 03:27:32;;;;;;;9.95;2.20;;;;;;;7.13;100.00;100455.22;4931175;29;20154;-45
2023/11/15 03:29:59;;;;;;;13.50;2.33;;;;;;;7.13;100.00;100455.22;4930546;29;20122;-45
2023/11/15 03:32:26;;;;;;;14.60;2.38;;;;;;;7.13;100.00;100452.47;4930333;29;20047;-45
2023/11/15 03:34:53;;;;;;;10.30;1.95;;;;;;;7.13;100.00;100453.28;4930795;29;20075;-44
2023/11/15 03:37:19;;;;;;;6.18;1.70;;;;;;;7.15;100.00;100455.69;4930451;29;20434;-45
2023/11/15 03:39:47;;;;;;;12.70;2.00;;;;;;;7.13;100.00;100457.97;4931255;29;20048;-46
2023/11/15 03:42:14;;;;;;;22.85;4.13;;;;;;;7.11;100.00;100452.81;4913719;29;20128;-46
2023/11/15 03:44:40;;;;;;;12.02;2.92;;;;;;;7.13;100.00;100471.75;4929202;29;20046;-45
2023/11/15 03:47:07;;;;;;;10.10;1.52;;;;;;;7.13;100.00;100472.56;4929565;29;20497;-44
2023/11/15 03:49:34;;;;;;;13.85;2.75;;;;;;;7.14;100.00;100467.88;4930490;29;20046;-48
2023/11/15 03:52:00;;;;;;;10.32;1.67;;;;;;;7.13;100.00;100478.06;4929994;29;20044;-44
2023/11/15 03:54:27;;;;;;;9.98;1.52;;;;;;;7.12;100.00;100479.19;4930054;29;20054;-45
2023/11/15 03:56:54;;;;;;;13.05;1.60;;;;;;;7.12;100.00;100478.41;4931261;29;20393;-44
2023/11/15 03:59:21;;;;;;;21.35;3.33;;;;;;;7.11;100.00;100485.03;4930211;29;20051;-45
2023/11/15 04:01:49;;;;;;;8.02;1.52;;;;;;;7.11;100.00;100490.53;4929965;29;20138;-50
2023/11/15 04:04:23;;;;;;;7.53;1.88;;;;;;;7.09;100.00;100487.31;4930565;29;20126;-44
2023/11/15 04:06:51;;;;;;;10.68;2.05;;;;;;;7.09;100.00;100487.31;4931340;29;20048;-44
2023/11/15 04:09:19;;;;;;;13.88;3.25;;;;;;;7.07;100.00;100489.59;4931187;29;20050;-44
2023/11/15 04:11:45;;;;;;;16.83;2.65;;;;;;;7.06;100.00;100482.47;4931159;29;20071;-47
2023/11/15 04:14:12;;;;;;;9.50;1.95;;;;;;;7.05;100.00;100491.84;4929156;29;20046;-44
2023/11/15 04:16:39;;;;;;;9.52;1.35;;;;;;;7.03;100.00;100494.13;4930536;29;20127;-45
2023/11/15 04:19:06;;;;;;;12.73;2.80;;;;;;;7.02;100.00;100487.00;4929798;29;20055;-47
2023/11/15 04:21:32;;;;;;;6.63;1.25;;;;;;;7.00;100.00;100497.53;4923670;29;20043;-45
2023/11/15 04:23:59;;;;;;;8.35;1.20;;;;;;;7.00;100.00;100500.28;4931140;29;20394;-44
2023/11/15 04:26:26;;;;;;;9.60;2.38;;;;;;;6.97;100.00;100501.75;4930825;29;20438;-45
2023/11/15 04:28:53;;;;;;;5.00;1.77;;;;;;;6.96;100.00;100497.38;4930880;29;20039;-45
2023/11/15 04:31:24;;;;;;;8.48;1.58;;;;;;;6.95;100.00;100504.03;4931125;29;20052;-46
2023/11/15 04:33:51;;;;;;;5.82;1.60;;;;;;;6.92;100.00;100499.16;4931193;29;20046;-46
2023/11/15 04:36:19;;;;;;;8.07;1.42;;;;;;;6.90;100.00;100511.63;4930598;29;20048;-44
2023/11/15 04:38:47;;;;;;;11.60;2.72;;;;;;;6.89;100.00;100510.00;4919126;29;20051;-48
2023/11/15 04:41:15;;;;;;;11.75;1.58;;;;;;;6.85;100.00;100525.56;4931264;29;20409;-44
2023/11/15 04:43:42;;;;;;;6.15;1.52;;;;;;;6.82;100.00;100531.72;4933975;29;20062;-45
2023/11/15 04:46:10;;;;;;;8.27;1.10;;;;;;;6.81;100.00;100524.59;4934505;29;20040;-45
2023/11/15 04:48:38;;;;;;;14.85;3.17;;;;;;;6.79;100.00;100537.88;4933533;29;20047;-44
2023/11/15 04:51:05;;;;;;;5.25;1.70;;;;;;;6.77;100.00;100551.97;4934276;29;20040;-44
2023/11/15 04:53:32;;;;;;;6.60;1.70;;;;;;;6.75;100.00;100549.50;4934228;29;20040;-44
2023/11/15 04:56:00;;;;;;;16.30;3.70;;;;;;;6.73;100.00;100539.97;4934131;29;20047;-44
2023/11/15 04:58:27;;;;;;;6.25;1.70;;;;;;;6.70;100.00;100540.59;4933462;29;20050;-44
2023/11/15 05:00:53;;;;;;;7.00;1.33;;;;;;;6.68;100.00;100548.38;4933369;29;20126;-44
2023/11/15 05:03:20;;;;;;;6.38;1.83;;;;;;;6.66;100.00;100543.22;4933017;29;20043;-45
2023/11/15 05:05:47;;;;;;;8.27;1.50;;;;;;;6.63;100.00;100541.13;4933168;29;20393;-45
2023/11/15 05:08:14;;;;;;;10.95;1.58;;;;;;;6.62;100.00;100549.66;4933835;29;20127;-44
2023/11/15 05:10:41;;;;;;;6.72;1.40;;;;;;;6.61;100.00;100548.06;4933789;29;20588;-45
2023/11/15 05:13:08;;;;;;;7.93;1.58;;;;;;;6.59;100.00;100547.59;4932721;29;20039;-44
2023/11/15 05:15:34;;;;;;;6.22;1.38;;;;;;;6.58;100.00;100555.03;4933406;29;20047;-45
2023/11/15 05:18:01;;;;;;;7.93;1.35;;;;;;;6.55;100.00;100555.66;4932820;29;20505;-44
2023/11/15 05:20:28;;;;;;;11.70;1.67;;;;;;;6.55;100.00;100561.19;4932677;29;20044;-44
2023/11/15 05:22:55;;;;;;;7.47;1.45;;;;;;;6.52;100.00;100556.31;4932773;29;20500;-44
2023/11/15 05:25:23;;;;;;;13.98;1.98;;;;;;;6.51;100.00;100554.69;4932876;29;20031;-44
2023/11/15 05:27:50;;;;;;;6.03;1.30;;;;;;;6.50;100.00;100566.03;4933340;29;20062;-44
2023/11/15 05:30:17;;;;;;;11.95;2.33;;;;;;;6.50;100.00;100568.78;4932466;29;20048;-46
2023/11/15 05:32:43;;;;;;;6.82;2.10;;;;;;;6.49;100.00;100573.44;4933405;29;20494;-46
2023/11/15 05:35:11;;;;;;;7.63;1.85;;;;;;;6.48;100.00;100588.34;4931164;29;20134;-45
2023/11/15 05:37:38;;;;;;;8.80;2.00;;;;;;;6.48;100.00;100593.84;4933291;29;20138;-44
2023/11/15 05:40:07;;;;;;;7.53;1.00;;;;;;;6.46;100.00;100595.31;4933346;29;20476;-44
2023/11/15 05:42:34;;;;;;;6.18;1.80;;;;;;;6.45;100.00;100589.00;4932639;29;20062;-45
2023/11/15 05:45:01;;;;;;;8.27;2.03;;;;;;;6.44;100.00;100603.03;4932407;29;20509;-44
2023/11/15 05:47:30;;;;;;;7.55;1.20;;;;;;;6.40;100.00;100607.59;4932497;29;20042;-45
2023/11/15 05:49:57;;;;;;;8.00;1.98;;;;;;;6.38;100.00;100609.84;4932437;29;20486;-45
2023/11/15 05:52:24;;;;;;;8.80;2.15;;;;;;;6.36;100.00;100607.41;4925702;29;20056;-44
2023/11/15 05:54:50;;;;;;;10.00;1.23;;;;;;;6.33;100.00;100602.53;4931536;29;20040;-45
2023/11/15 05:57:20;;;;;;;10.98;1.50;;;;;;;6.33;100.00;100610.78;4931903;29;20040;-50
2023/11/15 05:59:47;;;;;;;5.85;1.58;;;;;;;6.32;100.00;100614.69;4930573;29;20046;-45
2023/11/15 06:02:14;;;;;;;10.65;1.13;;;;;;;6.30;100.00;100608.69;4932052;29;20047;-44
2023/11/15 06:04:41;;;;;;;8.43;3.55;;;;;;;6.29;100.00;100617.25;4932911;29;20058;-48
2023/11/15 06:07:09;;;;;;;4.78;1.30;;;;;;;6.29;100.00;100625.50;4932001;29;20047;-45
2023/11/15 06:09:36;;;;;;;5.35;1.13;;;;;;;6.27;100.00;100603.84;4932565;29;20044;-44
2023/11/15 06:12:03;;;;;;;9.23;1.65;;;;;;;6.26;100.00;100617.88;4929871;29;20047;-45
2023/11/15 06:14:30;;;;;;;3.95;1.02;;;;;;;6.25;100.00;100625.31;4932503;29;20130;-44
2023/11/15 06:16:57;;;;;;;3.45;1.20;;;;;;;6.26;100.00;100628.88;4932151;29;20071;-44
2023/11/15 06:19:24;;;;;;;10.85;1.45;;;;;;;6.23;100.00;100619.34;4931562;29;20040;-45
2023/11/15 06:21:51;;;;;;;4.97;1.45;;;;;;;6.25;100.00;100630.03;4932470;29;20036;-44
2023/11/15 06:24:17;;;;;;;6.18;0.80;;;;;;;6.22;100.00;100630.66;4926262;29;20174;-44
2023/11/15 06:26:44;;;;;;;12.20;2.22;;;;;;;6.20;100.00;100630.97;4931984;29;20452;-44
2023/11/15 06:29:11;;;;;;;8.02;1.48;;;;;;;6.21;100.00;100629.84;4925461;29;20398;-46
2023/11/15 06:31:38;;;;;;;3.65;0.70;;;;;;;6.19;100.00;100637.63;4931306;29;20099;-45
2023/11/15 06:34:05;;;;;;;7.35;1.40;;;;;;;6.18;100.00;100638.72;4932340;29;20406;-45
2023/11/15 06:36:36;;;;;;;5.25;1.20;;;;;;;6.18;100.00;100646.97;4931953;29;20043;-44
2023/11/15 06:39:05;;;;;;;8.43;1.15;;;;;;;6.19;100.00;100651.34;4932273;29;20054;-46
2023/11/15 06:41:38;;;;;;;10.93;1.63;;;;;;;6.19;100.00;100648.59;4931995;29;20118;-44
2023/11/15 06:44:09;;;;;;;10.18;1.42;;;;;;;6.20;100.00;100652.16;4931682;29;20039;-47
2023/11/15 06:46:38;;;;;;;4.78;1.10;;;;;;;6.20;100.00;100654.91;4931560;29;20058;-45
2023/11/15 06:49:06;;;;;;;10.63;1.33;;;;;;;6.19;100.00;100656.03;4932007;29;20048;-44
2023/11/15 06:51:33;;;;;;;4.85;1.00;;;;;;;6.18;100.00;100652.47;4914462;29;20107;-44
2023/11/15 06:54:00;;;;;;;9.70;1.25;;;;;;;6.17;100.00;100653.59;4931538;29;20036;-45
2023/11/15 06:56:27;;;;;;;9.23;1.58;;;;;;;6.17;100.00;100663.81;4929409;29;20047;-45
2023/11/15 06:58:54;;;;;;;10.15;1.40;;;;;;;6.17;100.00;100667.34;4929426;29;20471;-45
2023/11/15 07:01:21;;;;;;;5.43;1.38;;;;;;;6.17;100.00;100672.84;4930341;29;20039;-44
2023/11/15 07:03:49;;;;;;;10.50;1.50;;;;;;;6.16;100.00;100679.47;4929610;29;20048;-45
2023/11/15 07:06:16;;;;;;;12.93;3.17;;;;;;;6.17;100.00;100685.78;4929578;29;20051;-45
2023/11/15 07:08:43;;;;;;;11.63;2.05;;;;;;;6.17;100.00;100692.06;4930108;29;20083;-46
2023/11/15 07:11:10;;;;;;;8.65;1.40;;;;;;;6.17;100.00;100686.56;4930581;29;20036;-45
2023/11/15 07:13:37;;;;;;;4.38;1.05;;;;;;;6.15;100.00;100688.84;4919391;29;20574;-46
2023/11/15 07:16:09;;;;;;;12.30;1.77;;;;;;;6.16;100.00;100700.66;4921581;29;20047;-44
2023/11/15 07:18:37;;;;;;;6.65;1.35;;;;;;;6.13;100.00;100702.91;4929591;29;20106;-44
2023/11/15 07:21:04;;;;;;;11.93;1.88;;;;;;;6.12;100.00;100695.78;4930311;29;20036;-46
2023/11/15 07:23:33;;;;;;;6.07;1.88;;;;;;;6.09;100.00;100712.91;4929560;29;20050;-44
2023/11/15 07:26:00;;;;;;;7.70;1.48;;;;;;;6.09;100.00;100723.91;4930209;29;20032;-44
2023/11/15 07:28:27;;;;;;;7.68;1.67;;;;;;;6.06;100.00;100707.25;4929356;29;20476;-45
2023/11/15 07:30:55;;;;;;;10.10;1.92;;;;;;;6.05;100.00;100719.34;4930306;29;20047;-48
2023/11/15 07:33:23;;;;;;;9.38;1.20;;;;;;;6.02;100.00;100707.06;4930300;29;20505;-44
2023/11/15 07:35:50;;;;;;;5.60;1.38;;;;;;;6.01;100.00;100721.91;4930644;29;20494;-44
2023/11/15 07:38:17;;;;;;;7.78;2.55;;;;;;;6.00;100.00;100730.50;4929581;29;20134;-44
2023/11/15 07:40:46;;;;;;;7.18;1.08;;;;;;;6.00;100.00;100727.75;4930399;29;20071;-44
2023/11/15 07:43:14;;;;;;;3.72;1.60;;;;;;;6.01;100.00;100729.38;4930320;29;20048;-47
2023/11/15 07:45:41;;;;;;;7.45;1.25;;;;;;;6.00;100.00;100736.81;4930161;29;20498;-44
2023/11/15 07:48:11;;;;;;;7.38;1.45;;;;;;;6.00;100.00;100741.47;4929554;29;20083;-45
2023/11/15 07:50:37;;;;;;;8.68;1.85;;;;;;;5.99;100.00;100750.84;4923597;29;20051;-45
2023/11/15 07:53:04;;;;;;;10.65;1.42;;;;;;;5.99;100.00;100750.84;4929581;29;20040;-44
2023/11/15 07:55:32;;;;;;;9.25;1.70;;;;;;;5.99;100.00;100750.84;4929438;29;20067;-44
2023/11/15 07:57:58;;;;;;;8.80;1.38;;;;;;;5.99;100.00;100751.66;4927586;29;20135;-44
2023/11/15 08:00:25;;;;;;;7.15;1.35;;;;;;;5.99;100.00;100739.84;4928639;29;20043;-44
2023/11/15 08:02:54;;;;;;;4.78;1.42;;;;;;;5.99;100.00;100739.84;4884465;29;1190306;-43
2023/11/15 08:05:22;;;;;;;9.48;1.38;;;;;;;5.99;100.00;100748.09;4929393;29;20139;-47
2023/11/15 08:07:49;;;;;;;16.92;2.17;;;;;;;5.98;100.00;100755.50;4927891;29;20721;-44
2023/11/15 08:10:16;;;;;;;12.43;1.45;;;;;;;5.98;100.00;100760.22;4926812;29;20047;-46
2023/11/15 08:12:44;;;;;;;11.32;1.80;;;;;;;5.99;100.00;100764.56;4929429;29;20036;-44
2023/11/15 08:15:14;;;;;;;8.95;1.35;;;;;;;5.99;100.00;100761.81;4929211;29;20044;-44
2023/11/15 08:17:42;;;;;;;7.65;1.67;;;;;;;6.00;100.00;100763.47;4928513;29;20134;-45
2023/11/15 08:20:10;;;;;;;11.88;1.98;;;;;;;6.01;100.00;100759.59;4928218;29;20779;-46
2023/11/15 08:22:38;;;;;;;13.05;1.42;;;;;;;6.01;100.00;100763.13;4928963;29;20051;-46
2023/11/15 08:25:09;;;;;;;14.57;2.10;;;;;;;6.01;100.00;100767.84;4929378;29;20043;-43
2023/11/15 08:27:38;;;;;;;10.90;1.35;;;;;;;6.02;100.00;100773.00;4929383;29;20043;-45
2023/11/15 08:30:17;;;;;;;8.15;1.13;;;;;;;6.02;100.00;100773.00;4927951;29;20062;-45
2023/11/15 08:32:48;;;;;;;7.28;1.52;;;;;;;6.04;100.00;100780.94;4920849;29;20054;-45
2023/11/15 08:35:17;;;;;;;7.97;1.60;;;;;;;6.06;100.00;100773.22;4929521;29;20130;-45
2023/11/15 08:37:44;;;;;;;9.95;2.00;;;;;;;6.08;100.00;100779.19;4928622;29;20139;-44
2023/11/15 08:40:11;;;;;;;7.88;1.95;;;;;;;6.10;100.00;100779.69;4927612;29;20122;-45
2023/11/15 08:42:54;;;;;;;8.43;1.92;;;;;;;6.11;100.00;100789.56;4922239;29;20103;-46
2023/11/15 08:45:22;;;;;;;3.85;1.30;;;;;;;6.13;100.00;100793.63;4928573;29;20040;-45
2023/11/15 08:47:49;;;;;;;10.82;1.73;;;;;;;6.14;100.00;100808.97;4928597;29;20143;-45
2023/11/15 08:50:22;;;;;;;6.00;1.90;;;;;;;6.17;100.00;100799.28;4927626;29;20044;-45
2023/11/15 08:52:48;;;;;;;11.40;1.45;;;;;;;6.19;100.00;100816.28;4928132;29;20062;-45
2023/11/15 08:55:15;;;;;;;13.00;2.58;;;;;;;6.21;100.00;100814.03;4927549;29;20471;-46
2023/11/15 08:57:42;;;;;;;8.23;1.55;;;;;;;6.25;100.00;100804.00;4929358;29;20660;-46
2023/11/15 09:00:15;;;;;;;6.43;1.35;;;;;;;6.27;100.00;100807.28;4927690;29;20453;-47
2023/11/15 09:02:47;;;;;;;6.28;1.65;;;;;;;6.30;100.00;100814.88;4926105;29;20103;-45
2023/11/15 09:05:16;;;;;;;4.85;1.05;;;;;;;6.34;100.00;100806.81;4928190;29;20060;-47
2023/11/15 09:07:44;;;;;;;11.63;2.15;;;;;;;6.37;100.00;100806.19;4928129;29;20123;-45
2023/11/15 09:10:11;;;;;;;10.55;1.45;;;;;;;6.40;100.00;100806.38;4928662;29;20450;-45
2023/11/15 09:12:38;;;;;;;10.40;1.85;;;;;;;6.43;100.00;100799.44;4928171;29;20517;-45
2023/11/15 09:15:11;;;;;;;8.88;1.35;;;;;;;6.46;100.00;100810.59;4928375;29;20047;-45
2023/11/15 09:17:46;;;;;;;8.73;1.70;;;;;;;6.49;100.00;100809.97;4928585;29;20156;-47
2023/11/15 09:20:25;;;;;;;9.73;1.48;;;;;;;6.53;100.00;100821.16;4927954;29;20039;-45
2023/11/15 09:22:53;;;;;;;10.00;1.52;;;;;;;6.55;100.00;100822.47;4928386;29;20111;-46
2023/11/15 09:25:23;;;;;;;6.05;1.10;;;;;;;6.59;100.00;100847.41;4928598;29;20059;-45
2023/11/15 09:27:52;;;;;;;10.40;1.63;;;;;;;6.60;100.00;100827.81;4929027;29;20516;-45
2023/11/15 09:30:20;;;;;;;8.07;1.38;;;;;;;6.63;100.00;100843.69;4931004;29;20046;-49
2023/11/15 09:32:51;;;;;;;7.25;1.40;;;;;;;6.64;100.00;100837.09;4932431;29;20134;-47
2023/11/15 09:35:21;;;;;;;7.20;1.60;;;;;;;6.67;100.00;100839.19;4931535;29;20478;-44
2023/11/15 09:37:52;;;;;;;10.32;1.63;;;;;;;6.70;100.00;100838.53;4931791;29;20075;-45
2023/11/15 09:40:21;;;;;;;9.88;1.60;;;;;;;6.71;100.00;100842.13;4931346;29;20044;-45
2023/11/15 09:42:51;;;;;;;7.60;1.63;;;;;;;6.73;100.00;100829.66;4932179;29;20091;-46
2023/11/15 09:45:23;;;;;;;9.77;1.85;;;;;;;6.75;100.00;100841.16;4920325;29;20048;-46
2023/11/15 09:47:51;;;;;;;4.18;1.55;;;;;;;6.79;100.00;100846.03;4931324;29;20166;-45
2023/11/15 09:50:22;;;;;;;10.13;1.67;;;;;;;6.81;100.00;100841.00;4930943;29;20740;-45
2023/11/15 09:52:54;;;;;;;11.63;1.73;;;;;;;6.84;100.00;100840.38;4931594;29;20813;-45
2023/11/15 09:55:26;;;;;;;8.65;1.38;;;;;;;6.86;100.00;100835.41;4931681;29;20039;-45
2023/11/15 09:57:53;;;;;;;5.20;1.70;;;;;;;6.88;100.00;100827.63;4930789;29;20047;-45
2023/11/15 10:00:21;;;;;;;13.05;2.45;;;;;;;6.92;100.00;100843.16;4931170;29;20289;-45
2023/11/15 10:02:51;;;;;;;11.23;3.17;;;;;;;6.96;100.00;100840.59;4931545;29;20048;-46
2023/11/15 10:05:23;;;;;;;11.85;1.83;;;;;;;7.01;100.00;100846.78;4931366;29;20158;-45
2023/11/15 10:07:52;;;;;;;9.35;2.10;;;;;;;7.06;100.00;100845.81;4931079;29;20046;-47
2023/11/15 10:10:20;;;;;;;9.07;1.40;;;;;;;7.11;100.00;100853.91;4930734;29;20152;-48
2023/11/15 10:12:54;;;;;;;7.60;1.40;;;;;;;7.15;100.00;100854.88;4930518;29;20044;-49
2023/11/15 10:15:36;;;;;;;8.25;1.92;;;;;;;7.18;100.00;100862.50;4930829;29;20044;-45
2023/11/15 10:18:03;;;;;;;10.07;1.67;;;;;;;7.23;100.00;100848.59;4931307;29;20048;-45
2023/11/15 10:20:30;;;;;;;8.40;1.50;;;;;;;7.28;100.00;100853.97;4930436;29;20040;-47
2023/11/15 10:22:57;;;;;;;5.68;1.58;;;;;;;7.31;100.00;100851.38;4930361;29;20047;-51
2023/11/15 10:25:25;;;;;;;9.57;2.67;;;;;;;7.37;100.00;100863.06;4931393;29;20050;-47
2023/11/15 10:28:04;;;;;;;6.43;1.48;;;;;;;7.42;100.00;100860.16;4931344;29;20127;-46
2023/11/15 10:30:31;;;;;;;7.65;1.30;;;;;;;7.46;100.00;100855.63;4931441;29;20044;-47
2023/11/15 10:33:07;;;;;;;8.85;1.35;;;;;;;7.50;100.00;100856.59;4922101;29;20075;-45
2023/11/15 10:35:34;;;;;;;3.58;0.98;;;;;;;7.54;100.00;100857.59;4931216;29;20048;-46
2023/11/15 10:38:01;;;;;;;17.13;2.58;;;;;;;7.57;100.00;100854.16;4930534;29;20043;-48
2023/11/15 10:40:30;;;;;;;4.68;1.30;;;;;;;7.61;100.00;100859.84;4929517;29;20134;-46
2023/11/15 10:43:01;;;;;;;16.85;1.90;;;;;;;7.64;100.00;100864.72;4929897;29;20055;-46
2023/11/15 10:45:31;;;;;;;7.20;1.85;;;;;;;7.66;100.00;100863.25;4930120;29;20075;-49
2023/11/15 10:48:08;;;;;;;10.80;2.40;;;;;;;7.70;100.00;100869.78;4930398;29;20130;-48
2023/11/15 10:50:41;;;;;;;6.70;1.77;;;;;;;7.73;100.00;100866.34;4930305;29;20063;-45
2023/11/15 10:53:12;;;;;;;10.55;2.35;;;;;;;7.76;100.00;100871.22;4930553;29;20036;-45
2023/11/15 10:55:43;;;;;;;12.05;1.90;;;;;;;7.78;100.00;100881.94;4930324;29;20576;-45
2023/11/15 10:58:12;;;;;;;12.30;1.70;;;;;;;7.81;100.00;100878.53;4930151;29;20055;-45
2023/11/15 11:00:40;;;;;;;7.22;1.75;;;;;;;7.83;100.00;100885.34;4923165;29;20036;-46
2023/11/15 11:03:11;;;;;;;10.88;1.33;;;;;;;7.87;100.00;100882.72;4921843;29;20040;-48
2023/11/15 11:05:56;;;;;;;5.20;1.38;;;;;;;7.89;100.00;100885.97;4928549;29;20138;-47
2023/11/15 11:08:36;;;;;;;14.05;2.15;;;;;;;7.92;99.86;100886.13;4929066;29;20512;-45
2023/11/15 11:11:09;;;;;;;6.80;1.15;;;;;;;7.95;99.85;100896.53;4929675;29;20039;-46
2023/11/15 11:13:40;;;;;;;7.45;1.60;;;;;;;7.98;99.77;100906.91;4929524;29;20055;-45
2023/11/15 11:16:28;;;;;;;6.95;1.20;;;;;;;8.01;99.79;100893.59;4909181;29;20044;-47
2023/11/15 11:19:21;;;;;;;7.80;2.42;;;;;;;8.05;99.55;100911.91;4928062;29;20098;-45
2023/11/15 11:22:07;;;;;;;4.10;1.10;;;;;;;8.08;99.60;100919.53;4929728;29;20059;-45
2023/11/15 11:25:06;;;;;;;4.68;1.15;;;;;;;8.11;99.35;100920.84;4929920;29;20082;-46
2023/11/15 11:27:36;;;;;;;6.82;1.42;;;;;;;8.15;98.80;100922.66;4930010;29;20039;-45
2023/11/15 11:30:07;;;;;;;5.95;1.75;;;;;;;8.20;98.52;100918.91;4929458;29;20051;-45